Time;durP1;ratioP1;P1;durP2;ratioP2;P2;SDS_P1;SDS_P2;PMS_P1;PMS_P2;Temp;Humidity;BMP_temperature;BMP_pressure;BME280_temperature;BME280_humidity;BME280_pressure;Samples;Min_cycle;Max_cycle;Signal;HPM_P1;HPM_P2
2023/04/17 00:02:21;;;;;;;47.85;23.63;;;;;;;;;;5138757;27;20023;-73
2023/04/17 00:05:07;;;;;;;47.53;23.55;;;;;;;;;;5138370;27;20019;-72
2023/04/17 00:07:55;;;;;;;49.67;24.40;;;;;;;;;;5138788;27;20051;-71
2023/04/17 00:10:41;;;;;;;48.20;24.40;;;;;;;;;;5137928;27;20023;-72
2023/04/17 00:13:27;;;;;;;43.13;22.55;;;;;;;;;;5124865;27;20041;-71
2023/04/17 00:16:12;;;;;;;52.55;23.70;;;;;;;;;;5138041;27;20019;-72
2023/04/17 00:18:58;;;;;;;45.75;22.80;;;;;;;;;;5138389;27;20090;-72
2023/04/17 00:21:44;;;;;;;44.88;22.67;;;;;;;;;;5138049;27;20083;-72
2023/04/17 00:24:29;;;;;;;47.97;22.60;;;;;;;;;;5137842;27;20102;-72
2023/04/17 00:27:15;;;;;;;54.15;23.60;;;;;;;;;;5138584;27;20084;-72
2023/04/17 00:30:00;;;;;;;50.35;22.70;;;;;;;;;;5138782;27;20054;-70
2023/04/17 00:32:46;;;;;;;45.38;24.20;;;;;;;;;;5137786;27;20026;-72
2023/04/17 00:35:32;;;;;;;51.70;23.80;;;;;;;;;;5138227;27;20476;-72
2023/04/17 00:38:17;;;;;;;52.13;24.55;;;;;;;;;;5137598;27;20086;-72
2023/04/17 00:41:03;;;;;;;44.15;22.58;;;;;;;;;;5137444;27;20019;-72
2023/04/17 00:43:49;;;;;;;55.67;24.80;;;;;;;;;;5124626;27;20098;-72
2023/04/17 00:46:34;;;;;;;51.70;23.48;;;;;;;;;;5138600;27;20468;-72
2023/04/17 00:49:20;;;;;;;53.28;23.55;;;;;;;;;;5138262;27;20015;-72
2023/04/17 00:52:06;;;;;;;52.83;24.70;;;;;;;;;;5138262;27;20007;-72
2023/04/17 00:54:53;;;;;;;47.75;25.05;;;;;;;;;;5138557;27;20171;-72
2023/04/17 00:57:39;;;;;;;43.15;23.38;;;;;;;;;;5137602;27;20336;-72
2023/04/17 01:00:25;;;;;;;48.67;23.45;;;;;;;;;;5137352;27;20023;-73
2023/04/17 01:03:11;;;;;;;48.67;23.35;;;;;;;;;;5137319;27;20022;-73
2023/04/17 01:05:56;;;;;;;45.42;22.98;;;;;;;;;;5122703;27;20095;-73
2023/04/17 01:08:42;;;;;;;43.40;22.70;;;;;;;;;;5123976;27;20043;-74
2023/04/17 01:11:29;;;;;;;45.88;22.08;;;;;;;;;;5136913;27;20051;-72
2023/04/17 01:14:15;;;;;;;48.90;23.30;;;;;;;;;;5121658;27;20027;-71
2023/04/17 01:17:01;;;;;;;54.67;24.50;;;;;;;;;;5123530;27;20046;-72
2023/04/17 01:19:47;;;;;;;50.55;23.45;;;;;;;;;;5121715;27;20027;-72
2023/04/17 01:22:33;;;;;;;44.58;22.98;;;;;;;;;;5136140;27;20015;-71
2023/04/17 01:25:19;;;;;;;51.30;22.67;;;;;;;;;;5137589;27;20026;-72
2023/04/17 01:28:04;;;;;;;44.65;22.13;;;;;;;;;;5138225;27;20023;-72
2023/04/17 01:30:50;;;;;;;46.17;22.58;;;;;;;;;;5137079;27;20019;-73
2023/04/17 01:33:35;;;;;;;44.22;22.02;;;;;;;;;;5138064;27;20449;-72
2023/04/17 01:36:21;;;;;;;44.63;22.17;;;;;;;;;;5137086;27;20031;-72
2023/04/17 01:39:07;;;;;;;39.40;21.35;;;;;;;;;;5137026;27;20027;-71
2023/04/17 01:41:53;;;;;;;45.88;21.63;;;;;;;;;;5137021;27;20336;-72
2023/04/17 01:44:38;;;;;;;43.75;22.33;;;;;;;;;;5137689;27;20399;-71
2023/04/17 01:47:24;;;;;;;40.38;21.85;;;;;;;;;;5123748;27;20100;-72
2023/04/17 01:50:10;;;;;;;40.50;21.27;;;;;;;;;;5123194;27;20023;-71
2023/04/17 01:52:55;;;;;;;39.50;21.15;;;;;;;;;;5122065;27;20359;-71
2023/04/17 01:55:41;;;;;;;43.83;20.77;;;;;;;;;;5136890;27;20455;-72
2023/04/17 01:58:27;;;;;;;42.58;22.30;;;;;;;;;;5136286;27;20030;-72
2023/04/17 02:01:12;;;;;;;36.65;21.20;;;;;;;;;;5136560;27;20058;-72
2023/04/17 02:03:58;;;;;;;41.80;22.67;;;;;;;;;;5136585;27;20062;-72
2023/04/17 02:06:43;;;;;;;44.70;22.15;;;;;;;;;;5135708;27;20019;-72
2023/04/17 02:09:29;;;;;;;50.35;23.90;;;;;;;;;;5121363;27;20034;-72
2023/04/17 02:12:15;;;;;;;46.70;24.92;;;;;;;;;;5121820;27;20127;-72
2023/04/17 02:15:00;;;;;;;46.90;23.35;;;;;;;;;;5136605;27;20457;-72
2023/04/17 02:17:46;;;;;;;49.95;23.20;;;;;;;;;;5136740;27;20057;-72
2023/04/17 02:20:32;;;;;;;46.55;23.30;;;;;;;;;;5136138;27;20019;-71
2023/04/17 02:23:18;;;;;;;41.95;22.10;;;;;;;;;;5135872;27;20016;-72
2023/04/17 02:26:06;;;;;;;45.50;21.33;;;;;;;;;;5136554;27;20043;-72
2023/04/17 02:28:52;;;;;;;46.17;23.02;;;;;;;;;;5135503;27;20106;-72
2023/04/17 02:31:39;;;;;;;45.53;23.35;;;;;;;;;;5135127;27;20118;-72
2023/04/17 02:34:25;;;;;;;45.65;22.83;;;;;;;;;;5122260;27;20461;-72
2023/04/17 02:37:10;;;;;;;42.25;22.08;;;;;;;;;;5135520;27;20035;-72
2023/04/17 02:39:56;;;;;;;47.03;23.45;;;;;;;;;;5135693;27;20408;-72
2023/04/17 02:42:42;;;;;;;50.35;22.65;;;;;;;;;;5135637;27;20011;-72
2023/04/17 02:45:27;;;;;;;47.92;23.60;;;;;;;;;;5135647;27;20015;-73
2023/04/17 02:48:13;;;;;;;48.63;24.95;;;;;;;;;;5120101;27;20109;-73
2023/04/17 02:50:59;;;;;;;55.17;26.13;;;;;;;;;;5135423;27;20087;-72
2023/04/17 02:53:44;;;;;;;50.60;25.30;;;;;;;;;;5135166;27;20022;-73
2023/04/17 02:56:30;;;;;;;46.20;23.33;;;;;;;;;;5135394;27;20098;-72
2023/04/17 02:59:16;;;;;;;49.95;23.60;;;;;;;;;;5135802;27;20087;-72
2023/04/17 03:02:03;;;;;;;51.45;22.70;;;;;;;;;;5134903;27;20019;-71
2023/04/17 03:04:49;;;;;;;46.05;22.85;;;;;;;;;;5135457;27;20435;-72
2023/04/17 03:07:34;;;;;;;44.97;22.52;;;;;;;;;;5135162;27;20069;-72
2023/04/17 03:10:20;;;;;;;42.78;22.88;;;;;;;;;;5135362;27;20030;-72
2023/04/17 03:13:05;;;;;;;45.40;23.30;;;;;;;;;;5135198;27;20038;-72
2023/04/17 03:15:51;;;;;;;47.13;22.35;;;;;;;;;;5135586;27;20027;-71
2023/04/17 03:18:40;;;;;;;53.35;23.23;;;;;;;;;;5134639;27;20047;-72
2023/04/17 03:21:25;;;;;;;45.35;21.95;;;;;;;;;;5134613;27;20045;-72
2023/04/17 03:24:11;;;;;;;41.03;20.40;;;;;;;;;;5135156;27;20016;-73
2023/04/17 03:26:58;;;;;;;45.03;20.15;;;;;;;;;;5134557;27;20043;-72
2023/04/17 03:29:43;;;;;;;40.88;20.00;;;;;;;;;;5135234;27;20084;-72
2023/04/17 03:32:29;;;;;;;44.67;21.92;;;;;;;;;;5135790;28;20015;-72
2023/04/17 03:35:15;;;;;;;41.65;21.52;;;;;;;;;;5134218;27;20115;-73
2023/04/17 03:38:01;;;;;;;41.15;19.95;;;;;;;;;;5135470;28;20502;-71
2023/04/17 03:40:46;;;;;;;42.92;21.38;;;;;;;;;;5134386;28;20023;-71
2023/04/17 03:43:32;;;;;;;40.03;21.38;;;;;;;;;;5134668;28;20016;-74
2023/04/17 03:46:17;;;;;;;41.70;21.02;;;;;;;;;;5147996;28;20435;-71
2023/04/17 03:49:03;;;;;;;45.08;21.08;;;;;;;;;;5136762;28;20096;-72
2023/04/17 03:51:49;;;;;;;43.30;21.60;;;;;;;;;;5134787;28;20023;-72
2023/04/17 03:54:35;;;;;;;41.25;21.65;;;;;;;;;;5134681;28;20044;-72
2023/04/17 03:57:21;;;;;;;45.25;23.08;;;;;;;;;;5135364;28;20023;-72
2023/04/17 04:00:09;;;;;;;48.33;23.60;;;;;;;;;;5134843;28;20091;-72
2023/04/17 04:02:54;;;;;;;45.50;21.90;;;;;;;;;;5134991;28;20051;-74
2023/04/17 04:05:40;;;;;;;47.53;23.38;;;;;;;;;;5134372;28;20026;-70
2023/04/17 04:08:25;;;;;;;48.05;23.35;;;;;;;;;;5133643;28;20471;-72
2023/04/17 04:11:11;;;;;;;51.63;22.40;;;;;;;;;;5134628;28;20019;-72
2023/04/17 04:13:57;;;;;;;47.03;21.55;;;;;;;;;;5134050;28;20098;-72
2023/04/17 04:16:42;;;;;;;47.65;21.42;;;;;;;;;;5134344;28;20355;-71
2023/04/17 04:19:28;;;;;;;45.00;20.83;;;;;;;;;;5134621;28;20031;-72
2023/04/17 04:22:13;;;;;;;51.70;22.98;;;;;;;;;;5133989;28;20011;-72
2023/04/17 04:24:59;;;;;;;55.75;22.90;;;;;;;;;;5135132;28;20029;-71
2023/04/17 04:27:48;;;;;;;45.10;21.67;;;;;;;;;;5133867;28;20012;-71
2023/04/17 04:30:37;;;;;;;44.83;21.85;;;;;;;;;;5134770;28;20034;-72
2023/04/17 04:33:23;;;;;;;38.10;20.55;;;;;;;;;;5134495;28;20019;-71
2023/04/17 04:36:08;;;;;;;37.63;19.92;;;;;;;;;;5133319;28;20461;-71
2023/04/17 04:38:58;;;;;;;38.05;20.10;;;;;;;;;;5134894;28;20023;-71
2023/04/17 04:41:45;;;;;;;35.85;19.58;;;;;;;;;;5134837;28;20081;-70
2023/04/17 04:44:31;;;;;;;33.20;18.63;;;;;;;;;;5134112;28;20019;-72
2023/04/17 04:47:18;;;;;;;30.27;17.65;;;;;;;;;;5136535;27;20347;-72
2023/04/17 04:50:04;;;;;;;35.22;19.60;;;;;;;;;;5123968;27;20034;-72
2023/04/17 04:52:50;;;;;;;34.67;19.30;;;;;;;;;;5122744;27;20030;-73
2023/04/17 04:55:35;;;;;;;37.22;20.38;;;;;;;;;;5137212;27;20019;-72
2023/04/17 04:58:21;;;;;;;45.80;21.27;;;;;;;;;;5137602;27;20125;-72
2023/04/17 05:01:06;;;;;;;45.55;22.40;;;;;;;;;;5137324;27;20034;-72
2023/04/17 05:03:52;;;;;;;45.47;22.20;;;;;;;;;;5137594;27;20336;-72
2023/04/17 05:06:38;;;;;;;46.47;22.23;;;;;;;;;;5137247;27;20079;-72
2023/04/17 05:09:23;;;;;;;51.53;22.13;;;;;;;;;;5123036;27;20067;-72
2023/04/17 05:12:09;;;;;;;41.72;20.50;;;;;;;;;;5122225;27;20031;-72
2023/04/17 05:14:54;;;;;;;42.80;22.15;;;;;;;;;;5137931;27;20034;-71
2023/04/17 05:17:40;;;;;;;41.55;20.65;;;;;;;;;;5138513;27;20012;-71
2023/04/17 05:20:26;;;;;;;34.25;18.85;;;;;;;;;;5139854;27;20027;-72
2023/04/17 05:23:11;;;;;;;40.75;19.15;;;;;;;;;;5136292;27;20019;-72
2023/04/17 05:25:57;;;;;;;36.38;20.23;;;;;;;;;;5137797;27;20023;-72
2023/04/17 05:28:43;;;;;;;36.13;20.27;;;;;;;;;;5121561;27;20102;-73
2023/04/17 05:31:29;;;;;;;37.97;20.48;;;;;;;;;;5137047;27;20045;-72
2023/04/17 05:34:15;;;;;;;46.40;21.25;;;;;;;;;;5137373;27;20164;-71
2023/04/17 05:37:01;;;;;;;42.78;21.67;;;;;;;;;;5122434;27;20015;-73
2023/04/17 05:39:47;;;;;;;40.75;22.95;;;;;;;;;;5137235;27;20023;-72
2023/04/17 05:42:33;;;;;;;39.70;21.83;;;;;;;;;;5136948;27;20023;-71
2023/04/17 05:45:18;;;;;;;48.60;23.08;;;;;;;;;;5136923;27;20111;-71
2023/04/17 05:48:04;;;;;;;41.47;22.45;;;;;;;;;;5123635;27;20015;-71
2023/04/17 05:50:50;;;;;;;42.47;22.50;;;;;;;;;;5137213;27;20034;-71
2023/04/17 05:53:36;;;;;;;41.50;22.08;;;;;;;;;;5136051;27;20094;-72
2023/04/17 05:56:22;;;;;;;37.60;21.23;;;;;;;;;;5136878;27;20027;-72
2023/04/17 05:59:07;;;;;;;44.83;23.00;;;;;;;;;;5136344;27;20034;-71
2023/04/17 06:01:53;;;;;;;47.47;21.98;;;;;;;;;;5136336;27;20035;-72
2023/04/17 06:04:40;;;;;;;37.50;21.15;;;;;;;;;;5121273;27;20076;-71
2023/04/17 06:07:25;;;;;;;40.95;21.77;;;;;;;;;;5136585;27;20047;-73
2023/04/17 06:10:11;;;;;;;43.53;21.83;;;;;;;;;;5135566;27;20076;-72
2023/04/17 06:12:57;;;;;;;47.40;21.95;;;;;;;;;;5136362;27;20023;-70
2023/04/17 06:15:42;;;;;;;38.97;20.50;;;;;;;;;;5136224;27;20372;-72
2023/04/17 06:18:28;;;;;;;39.15;20.65;;;;;;;;;;5136061;27;20027;-71
2023/04/17 06:21:13;;;;;;;36.17;21.25;;;;;;;;;;5135934;27;20019;-71
2023/04/17 06:23:59;;;;;;;44.10;20.75;;;;;;;;;;5135844;27;20091;-72
2023/04/17 06:26:45;;;;;;;46.88;21.65;;;;;;;;;;5135686;27;20011;-70
2023/04/17 06:29:30;;;;;;;46.45;21.02;;;;;;;;;;5135537;27;20024;-74
2023/04/17 06:32:16;;;;;;;45.88;23.00;;;;;;;;;;5135696;27;20011;-71
2023/04/17 06:35:02;;;;;;;44.42;22.70;;;;;;;;;;5117651;27;20031;-72
2023/04/17 06:37:47;;;;;;;47.88;22.17;;;;;;;;;;5133780;27;20031;-71
2023/04/17 06:40:33;;;;;;;43.78;22.13;;;;;;;;;;5135458;27;20473;-73
2023/04/17 06:43:18;;;;;;;41.50;20.92;;;;;;;;;;5135252;27;20034;-71
2023/04/17 06:46:04;;;;;;;35.13;19.30;;;;;;;;;;5135198;27;20019;-72
2023/04/17 06:48:51;;;;;;;37.38;18.42;;;;;;;;;;5135677;27;20022;-72
2023/04/17 06:51:36;;;;;;;34.53;17.40;;;;;;;;;;5135058;27;20119;-71
2023/04/17 06:54:22;;;;;;;32.58;16.77;;;;;;;;;;5135573;27;20034;-72
2023/04/17 06:57:09;;;;;;;30.73;16.73;;;;;;;;;;5135127;27;20023;-71
2023/04/17 06:59:55;;;;;;;27.83;15.90;;;;;;;;;;5121572;27;20015;-71
2023/04/17 07:02:40;;;;;;;27.35;15.15;;;;;;;;;;5135417;27;20368;-72
2023/04/17 07:05:26;;;;;;;29.13;14.68;;;;;;;;;;5135196;27;20435;-72
2023/04/17 07:08:12;;;;;;;30.08;16.42;;;;;;;;;;5135016;27;20047;-72
2023/04/17 07:10:58;;;;;;;27.33;14.57;;;;;;;;;;5121231;27;20023;-72
2023/04/17 07:13:43;;;;;;;29.73;15.30;;;;;;;;;;5120960;27;20061;-72
2023/04/17 07:16:29;;;;;;;30.90;15.00;;;;;;;;;;5135323;27;20023;-72
2023/04/17 07:19:14;;;;;;;28.02;16.25;;;;;;;;;;5134925;27;20023;-71
2023/04/17 07:22:00;;;;;;;28.45;15.48;;;;;;;;;;5135261;27;20099;-73
2023/04/17 07:24:45;;;;;;;27.13;15.68;;;;;;;;;;5135635;27;20011;-72
2023/04/17 07:27:31;;;;;;;29.50;14.70;;;;;;;;;;5135270;27;20493;-72
2023/04/17 07:30:17;;;;;;;35.17;16.08;;;;;;;;;;5122676;27;20027;-72
2023/04/17 07:33:02;;;;;;;28.77;15.27;;;;;;;;;;5134214;27;20016;-72
2023/04/17 07:35:48;;;;;;;29.08;15.45;;;;;;;;;;5134509;28;20331;-72
2023/04/17 07:38:33;;;;;;;30.17;16.50;;;;;;;;;;5120344;28;20514;-72
2023/04/17 07:41:19;;;;;;;33.35;17.13;;;;;;;;;;5135163;28;20048;-71
2023/04/17 07:44:05;;;;;;;29.75;16.40;;;;;;;;;;5135203;28;20098;-72
2023/04/17 07:46:50;;;;;;;31.17;16.05;;;;;;;;;;5135582;28;20023;-72
2023/04/17 07:49:38;;;;;;;30.70;16.20;;;;;;;;;;5143664;28;20015;-72
2023/04/17 07:52:24;;;;;;;30.98;15.98;;;;;;;;;;5145743;28;20042;-72
2023/04/17 07:55:09;;;;;;;32.67;16.35;;;;;;;;;;5134888;28;20019;-72
2023/04/17 07:57:55;;;;;;;30.73;16.02;;;;;;;;;;5134951;28;20594;-71
2023/04/17 08:00:41;;;;;;;32.97;16.73;;;;;;;;;;5133700;28;20511;-71
2023/04/17 08:03:27;;;;;;;26.25;15.07;;;;;;;;;;5133030;28;20046;-72
2023/04/17 08:06:14;;;;;;;30.83;15.73;;;;;;;;;;5134055;28;20023;-71
2023/04/17 08:09:01;;;;;;;31.77;15.90;;;;;;;;;;5134170;28;20043;-72
2023/04/17 08:11:46;;;;;;;27.83;16.00;;;;;;;;;;5135464;28;20072;-72
2023/04/17 08:14:32;;;;;;;35.40;16.20;;;;;;;;;;5146699;28;20020;-71
2023/04/17 08:17:21;;;;;;;27.05;14.98;;;;;;;;;;5134568;28;20038;-71
2023/04/17 08:20:12;;;;;;;30.42;16.17;;;;;;;;;;5134320;28;20032;-71
2023/04/17 08:22:58;;;;;;;31.70;16.73;;;;;;;;;;5138265;27;20023;-71
2023/04/17 08:25:43;;;;;;;27.95;16.52;;;;;;;;;;5139580;27;20377;-71
2023/04/17 08:28:29;;;;;;;30.05;16.73;;;;;;;;;;5137859;27;20019;-72
2023/04/17 08:31:15;;;;;;;26.65;14.98;;;;;;;;;;5138152;27;20019;-72
2023/04/17 08:34:01;;;;;;;25.15;15.75;;;;;;;;;;5137870;27;20500;-71
2023/04/17 08:36:46;;;;;;;25.42;16.00;;;;;;;;;;5123707;27;20088;-72
2023/04/17 08:39:32;;;;;;;25.48;16.17;;;;;;;;;;5137321;27;20080;-72
2023/04/17 08:42:18;;;;;;;28.95;16.83;;;;;;;;;;5122804;27;20090;-72
2023/04/17 08:45:08;;;;;;;27.15;16.67;;;;;;;;;;5137704;27;20019;-71
2023/04/17 08:47:54;;;;;;;27.25;16.33;;;;;;;;;;5139671;27;20019;-71
2023/04/17 08:50:40;;;;;;;31.67;17.40;;;;;;;;;;5124412;27;20073;-71
2023/04/17 08:53:26;;;;;;;28.80;18.15;;;;;;;;;;5140580;27;20019;-71
2023/04/17 08:56:12;;;;;;;37.25;19.83;;;;;;;;;;5137160;27;20016;-72
2023/04/17 08:58:57;;;;;;;31.63;19.15;;;;;;;;;;5141400;27;20449;-70
2023/04/17 09:02:01;;;;;;;30.98;18.85;;;;;;;;;;5126434;27;20015;-72
2023/04/17 09:04:47;;;;;;;34.10;19.25;;;;;;;;;;5137420;27;20438;-73
2023/04/17 09:07:33;;;;;;;33.85;18.52;;;;;;;;;;5137859;27;20084;-73
2023/04/17 09:10:18;;;;;;;29.48;17.63;;;;;;;;;;5138606;27;20027;-72
2023/04/17 09:13:04;;;;;;;28.45;16.60;;;;;;;;;;5141631;27;20019;-72
2023/04/17 09:16:03;;;;;;;28.05;16.02;;;;;;;;;;5142398;27;20030;-73
2023/04/17 09:18:49;;;;;;;27.77;15.77;;;;;;;;;;5139203;27;20027;-73
2023/04/17 09:21:34;;;;;;;23.05;14.15;;;;;;;;;;5141429;27;20015;-72
2023/04/17 09:24:33;;;;;;;23.70;13.13;;;;;;;;;;5139679;27;20098;-73
2023/04/17 09:27:23;;;;;;;19.40;12.55;;;;;;;;;;5136970;27;20046;-72
2023/04/17 09:30:09;;;;;;;18.92;11.80;;;;;;;;;;5136888;27;20027;-73
2023/04/17 09:33:01;;;;;;;20.88;13.43;;;;;;;;;;5136281;27;20024;-73
2023/04/17 09:35:47;;;;;;;20.10;12.15;;;;;;;;;;5122516;27;20358;-72
2023/04/17 09:38:36;;;;;;;20.77;12.52;;;;;;;;;;5136769;27;20023;-73
2023/04/17 09:41:33;;;;;;;17.27;12.23;;;;;;;;;;5137438;27;20037;-73
2023/04/17 09:44:26;;;;;;;19.17;11.40;;;;;;;;;;5135611;27;20015;-72
2023/04/17 09:47:14;;;;;;;17.33;12.02;;;;;;;;;;5136725;27;20034;-73
2023/04/17 09:50:01;;;;;;;16.75;11.98;;;;;;;;;;5136958;27;20351;-73
2023/04/17 09:52:49;;;;;;;22.10;12.80;;;;;;;;;;5121105;27;20022;-73
2023/04/17 09:55:36;;;;;;;21.13;13.00;;;;;;;;;;5135743;27;20055;-74
2023/04/17 09:58:22;;;;;;;19.27;13.18;;;;;;;;;;5136455;27;20084;-73
2023/04/17 10:01:08;;;;;;;20.58;12.93;;;;;;;;;;5135945;27;20079;-73
2023/04/17 10:03:55;;;;;;;23.08;13.52;;;;;;;;;;5136025;27;20023;-73
2023/04/17 10:06:40;;;;;;;23.40;14.27;;;;;;;;;;5136739;27;20453;-73
2023/04/17 10:09:26;;;;;;;23.63;14.07;;;;;;;;;;5135832;27;20073;-74
2023/04/17 10:12:16;;;;;;;22.27;12.57;;;;;;;;;;5122534;27;20034;-73
2023/04/17 10:15:03;;;;;;;20.92;12.65;;;;;;;;;;5136470;27;20015;-74
2023/04/17 10:17:49;;;;;;;21.88;13.65;;;;;;;;;;5121407;27;20481;-74
2023/04/17 10:20:35;;;;;;;19.83;12.30;;;;;;;;;;5136559;27;20049;-73
2023/04/17 10:23:25;;;;;;;15.40;10.82;;;;;;;;;;5136003;27;20027;-73
2023/04/17 10:26:26;;;;;;;16.90;11.27;;;;;;;;;;5136140;27;20026;-73
2023/04/17 10:29:12;;;;;;;19.25;12.25;;;;;;;;;;5138854;27;20430;-73
2023/04/17 10:32:07;;;;;;;18.50;12.80;;;;;;;;;;5120415;27;20027;-73
2023/04/17 10:34:56;;;;;;;23.58;12.75;;;;;;;;;;5136240;27;20015;-73
2023/04/17 10:37:50;;;;;;;25.42;13.70;;;;;;;;;;5136021;27;20354;-74
2023/04/17 10:40:37;;;;;;;26.88;14.25;;;;;;;;;;5137081;27;20026;-72
2023/04/17 10:43:22;;;;;;;22.67;13.80;;;;;;;;;;5136155;27;20059;-74
2023/04/17 10:46:09;;;;;;;22.42;12.25;;;;;;;;;;5120579;27;20435;-73
2023/04/17 10:48:58;;;;;;;20.63;12.68;;;;;;;;;;5137242;27;20087;-73
2023/04/17 10:51:43;;;;;;;15.52;11.52;;;;;;;;;;5121772;27;20101;-73
2023/04/17 10:54:31;;;;;;;19.10;11.68;;;;;;;;;;5135959;27;20015;-74
2023/04/17 10:57:36;;;;;;;14.48;10.35;;;;;;;;;;5135484;27;20401;-73
2023/04/17 11:00:35;;;;;;;13.70;10.13;;;;;;;;;;5134630;27;20054;-72
2023/04/17 11:03:21;;;;;;;15.65;10.57;;;;;;;;;;5119923;27;20019;-72
2023/04/17 11:06:07;;;;;;;14.75;10.27;;;;;;;;;;5135627;27;20372;-73
2023/04/17 11:08:56;;;;;;;14.63;10.60;;;;;;;;;;5134836;27;20043;-73
2023/04/17 11:11:42;;;;;;;17.20;11.10;;;;;;;;;;5135587;27;20023;-73
2023/04/17 11:14:29;;;;;;;19.02;11.50;;;;;;;;;;5124556;27;20091;-73
2023/04/17 11:17:14;;;;;;;20.23;12.55;;;;;;;;;;5133606;27;20018;-74
2023/04/17 11:20:00;;;;;;;19.50;12.63;;;;;;;;;;5127568;27;20097;-72
2023/04/17 11:22:46;;;;;;;21.92;13.05;;;;;;;;;;5136052;27;20030;-72
2023/04/17 11:25:32;;;;;;;24.73;14.88;;;;;;;;;;5135763;27;20443;-73
2023/04/17 11:28:18;;;;;;;25.40;14.85;;;;;;;;;;5135755;27;20347;-73
2023/04/17 11:31:03;;;;;;;26.77;15.13;;;;;;;;;;5120969;27;20027;-73
2023/04/17 11:33:49;;;;;;;23.17;15.07;;;;;;;;;;5136184;27;20019;-72
2023/04/17 11:36:35;;;;;;;26.75;15.55;;;;;;;;;;5119329;28;20023;-73
2023/04/17 11:39:22;;;;;;;26.80;15.63;;;;;;;;;;5134473;28;20023;-72
2023/04/17 11:42:08;;;;;;;29.48;15.95;;;;;;;;;;5134819;28;20023;-73
2023/04/17 11:45:01;;;;;;;21.63;15.48;;;;;;;;;;5120866;28;20050;-73
2023/04/17 11:47:47;;;;;;;22.98;15.60;;;;;;;;;;5120256;28;20098;-73
2023/04/17 11:50:34;;;;;;;28.02;15.73;;;;;;;;;;5135432;28;20114;-72
2023/04/17 11:53:19;;;;;;;22.67;14.50;;;;;;;;;;5134277;28;20404;-73
2023/04/17 11:56:15;;;;;;;22.88;14.20;;;;;;;;;;5120679;27;20026;-73
2023/04/17 11:59:02;;;;;;;21.92;13.43;;;;;;;;;;5125858;27;20027;-72
2023/04/17 12:01:51;;;;;;;18.00;12.80;;;;;;;;;;5124141;27;20084;-72
2023/04/17 12:04:38;;;;;;;23.52;14.35;;;;;;;;;;5138770;27;20076;-72
2023/04/17 12:07:23;;;;;;;32.35;15.07;;;;;;;;;;5139032;27;20042;-72
2023/04/17 12:10:10;;;;;;;22.80;13.60;;;;;;;;;;5138665;27;20019;-73
2023/04/17 12:12:55;;;;;;;22.52;13.50;;;;;;;;;;5138646;27;20113;-72
2023/04/17 12:15:41;;;;;;;25.70;13.65;;;;;;;;;;5138613;27;20027;-72
2023/04/17 12:18:27;;;;;;;24.48;13.40;;;;;;;;;;5137792;27;20019;-72
2023/04/17 12:21:12;;;;;;;22.02;12.60;;;;;;;;;;5122472;27;20050;-72
2023/04/17 12:23:58;;;;;;;21.45;12.30;;;;;;;;;;5138298;27;20015;-72
2023/04/17 12:26:47;;;;;;;22.67;12.50;;;;;;;;;;5138673;27;20075;-72
2023/04/17 12:29:33;;;;;;;21.25;12.60;;;;;;;;;;5138468;27;20020;-72
2023/04/17 12:32:18;;;;;;;21.02;12.07;;;;;;;;;;5123763;27;20027;-73
2023/04/17 12:35:04;;;;;;;18.73;11.85;;;;;;;;;;5122761;27;20351;-73
2023/04/17 12:37:50;;;;;;;19.80;11.88;;;;;;;;;;5139567;27;20026;-73
2023/04/17 12:40:37;;;;;;;18.20;12.07;;;;;;;;;;5138254;27;20032;-73
2023/04/17 12:43:23;;;;;;;18.88;11.57;;;;;;;;;;5123283;27;20400;-72
2023/04/17 12:46:09;;;;;;;19.00;12.20;;;;;;;;;;5137764;27;20098;-73
2023/04/17 12:48:57;;;;;;;19.13;12.70;;;;;;;;;;5123729;27;20455;-73
2023/04/17 12:51:45;;;;;;;19.92;13.00;;;;;;;;;;5124140;27;20443;-72
2023/04/17 12:54:31;;;;;;;18.52;11.65;;;;;;;;;;5122204;27;20108;-73
2023/04/17 12:57:17;;;;;;;20.10;12.15;;;;;;;;;;5122658;27;20019;-72
2023/04/17 13:00:07;;;;;;;22.70;12.65;;;;;;;;;;5137979;27;20019;-73
2023/04/17 13:02:52;;;;;;;18.17;11.75;;;;;;;;;;5138530;27;20435;-73
2023/04/17 13:05:38;;;;;;;19.02;11.73;;;;;;;;;;5138357;27;20106;-72
2023/04/17 13:08:24;;;;;;;19.23;11.73;;;;;;;;;;5137320;27;20039;-73
2023/04/17 13:11:10;;;;;;;16.95;11.98;;;;;;;;;;5141225;27;20499;-72
2023/04/17 13:13:55;;;;;;;18.77;11.75;;;;;;;;;;5137293;27;20023;-72
2023/04/17 13:16:41;;;;;;;22.13;12.30;;;;;;;;;;5137440;27;20109;-72
2023/04/17 13:19:26;;;;;;;21.13;11.23;;;;;;;;;;5137546;27;20034;-72
2023/04/17 13:22:12;;;;;;;25.00;12.18;;;;;;;;;;5137671;27;20035;-73
2023/04/17 13:24:58;;;;;;;16.95;11.15;;;;;;;;;;5137675;27;20011;-72
2023/04/17 13:27:43;;;;;;;16.35;10.32;;;;;;;;;;5137771;27;20030;-72
2023/04/17 13:30:31;;;;;;;18.60;10.48;;;;;;;;;;5137196;27;20019;-72
2023/04/17 13:33:16;;;;;;;20.83;10.98;;;;;;;;;;5136347;27;20227;-73
2023/04/17 13:36:02;;;;;;;22.73;10.73;;;;;;;;;;5137336;27;20038;-73
2023/04/17 13:38:47;;;;;;;17.75;10.80;;;;;;;;;;5123000;27;20364;-72
2023/04/17 13:41:33;;;;;;;18.25;11.75;;;;;;;;;;5136152;27;20027;-72
2023/04/17 13:44:19;;;;;;;20.60;11.40;;;;;;;;;;5136764;27;20019;-72
2023/04/17 13:47:06;;;;;;;21.55;11.02;;;;;;;;;;5136867;27;20057;-72
2023/04/17 13:49:52;;;;;;;26.33;11.38;;;;;;;;;;5136751;27;20030;-74
2023/04/17 13:52:37;;;;;;;22.70;10.05;;;;;;;;;;5136760;27;20102;-74
2023/04/17 13:55:23;;;;;;;23.23;12.00;;;;;;;;;;5123143;27;20371;-75
2023/04/17 13:58:08;;;;;;;22.42;10.40;;;;;;;;;;5137192;27;20502;-73
2023/04/17 14:00:54;;;;;;;21.98;10.70;;;;;;;;;;5122632;27;20439;-73
2023/04/17 14:03:40;;;;;;;21.42;11.07;;;;;;;;;;5136009;27;20080;-74
2023/04/17 14:06:30;;;;;;;25.13;11.93;;;;;;;;;;5135935;27;20404;-73
2023/04/17 14:09:16;;;;;;;25.88;11.00;;;;;;;;;;5122744;27;20099;-74
2023/04/17 14:12:01;;;;;;;20.08;11.27;;;;;;;;;;5135816;27;20023;-72
2023/04/17 14:14:47;;;;;;;26.48;12.82;;;;;;;;;;5120757;27;20020;-73
2023/04/17 14:17:36;;;;;;;23.52;11.95;;;;;;;;;;5136411;27;20029;-72
2023/04/17 14:20:22;;;;;;;24.45;11.82;;;;;;;;;;5121420;27;20019;-74
2023/04/17 14:23:07;;;;;;;18.77;11.25;;;;;;;;;;5131747;27;20023;-73
2023/04/17 14:25:53;;;;;;;22.92;10.73;;;;;;;;;;5135501;27;20119;-74
2023/04/17 14:28:39;;;;;;;21.60;11.25;;;;;;;;;;5136059;27;20019;-73
2023/04/17 14:31:24;;;;;;;21.08;11.43;;;;;;;;;;5136874;27;20038;-73
2023/04/17 14:34:10;;;;;;;21.90;11.73;;;;;;;;;;5121503;27;20033;-74
2023/04/17 14:36:56;;;;;;;21.70;11.57;;;;;;;;;;5135905;27;20030;-73
2023/04/17 14:39:42;;;;;;;23.88;11.65;;;;;;;;;;5134845;27;20019;-73
2023/04/17 14:42:28;;;;;;;21.50;11.27;;;;;;;;;;5120330;27;20027;-74
2023/04/17 14:45:13;;;;;;;23.13;12.30;;;;;;;;;;5136138;27;20105;-73
2023/04/17 14:47:59;;;;;;;21.92;12.13;;;;;;;;;;5136050;27;20012;-73
2023/04/17 14:50:45;;;;;;;26.67;13.32;;;;;;;;;;5136646;27;20072;-73
2023/04/17 14:53:30;;;;;;;28.58;13.48;;;;;;;;;;5136975;27;20105;-73
2023/04/17 14:56:16;;;;;;;34.28;17.35;;;;;;;;;;5136997;27;20027;-73
2023/04/17 14:59:02;;;;;;;28.40;15.20;;;;;;;;;;5136257;27;20054;-73
2023/04/17 15:01:47;;;;;;;30.08;16.08;;;;;;;;;;5137032;27;20034;-71
2023/04/17 15:04:33;;;;;;;28.80;14.88;;;;;;;;;;5134972;27;20091;-70
2023/04/17 15:07:19;;;;;;;29.33;14.63;;;;;;;;;;5135772;27;20035;-72
2023/04/17 15:10:05;;;;;;;25.70;15.20;;;;;;;;;;5122757;27;20015;-73
2023/04/17 15:12:50;;;;;;;35.47;15.55;;;;;;;;;;5121800;27;20019;-73
2023/04/17 15:15:36;;;;;;;30.60;15.13;;;;;;;;;;5121430;27;20451;-74
2023/04/17 15:18:22;;;;;;;26.60;14.77;;;;;;;;;;5120338;27;20023;-72
2023/04/17 15:21:08;;;;;;;25.60;14.63;;;;;;;;;;5120625;27;20034;-73
2023/04/17 15:23:53;;;;;;;24.13;14.90;;;;;;;;;;5135308;27;20386;-72
2023/04/17 15:26:39;;;;;;;25.08;15.27;;;;;;;;;;5133555;27;20023;-73
2023/04/17 15:29:25;;;;;;;32.17;14.90;;;;;;;;;;5132961;27;20007;-73
2023/04/17 15:32:11;;;;;;;35.65;16.77;;;;;;;;;;5115576;27;20024;-74
2023/04/17 15:34:56;;;;;;;28.27;15.80;;;;;;;;;;5115544;28;20051;-74
2023/04/17 15:37:42;;;;;;;25.05;15.30;;;;;;;;;;5121044;28;20323;-74
2023/04/17 15:40:27;;;;;;;26.67;16.08;;;;;;;;;;5136596;28;20061;-72
2023/04/17 15:43:13;;;;;;;22.75;14.43;;;;;;;;;;5137484;28;20053;-72
2023/04/17 15:46:00;;;;;;;26.00;13.25;;;;;;;;;;5136314;28;20019;-73
2023/04/17 15:48:46;;;;;;;25.77;13.43;;;;;;;;;;5120784;28;20016;-73
2023/04/17 15:51:32;;;;;;;22.60;13.38;;;;;;;;;;5134908;28;20430;-72
2023/04/17 15:54:17;;;;;;;24.85;13.60;;;;;;;;;;5120319;28;20034;-74
2023/04/17 15:57:03;;;;;;;23.95;13.18;;;;;;;;;;5120210;28;20102;-72
2023/04/17 15:59:48;;;;;;;29.67;14.25;;;;;;;;;;5121025;28;20023;-73
2023/04/17 16:02:34;;;;;;;25.55;14.18;;;;;;;;;;5121016;28;20034;-74
2023/04/17 16:05:20;;;;;;;23.85;13.52;;;;;;;;;;5134873;28;20047;-73
2023/04/17 16:08:05;;;;;;;26.25;14.05;;;;;;;;;;5121104;28;20058;-74